Norris, South Carolina
Current Conditions -  °F | °C
As of 9:35 AM on Tuesday 27 Jan 2015 (Local Time) from KLQK Reporting Station
Broken Clouds Broken Clouds  
Wind Chill: 28°   Ceiling: 10000
Heat Index: 28°   Visibility: 10mi
Dew Point:   Wind: 0mph
Humidity: 42%   Direction: NA
Pressure: 29.85"   Gusts: NA
Location:  34.76°N, 82.75°W
Report Text: KLQK 271435Z AUTO 00000KT 10SM SCT055 BKN100 M02/M14 A2985 RMK AO2 T10241137
Loading
Personal Weather Stations






























Interactive Weather Map New forecast layout! Learn more

10-Day Weather Forecast

Advertisements
Track Severe Weather on mobile